Time;durP1;ratioP1;P1;durP2;ratioP2;P2;SDS_P1;SDS_P2;PMS_P1;PMS_P2;Temp;Humidity;BMP_temperature;BMP_pressure;BME280_temperature;BME280_humidity;BME280_pressure;Samples;Min_cycle;Max_cycle;Signal;HPM_P1;HPM_P2
2022/07/31 00:00:08;;;;;;;3.83;3.35;;;25.80;52.60;27.20;100980.00;;;;5090564;28;20302;-40
2022/07/31 00:02:34;;;;;;;3.55;2.75;;;25.80;52.00;27.20;100979.00;;;;5093891;28;20204;-48
2022/07/31 00:05:01;;;;;;;3.40;3.10;;;25.80;51.70;27.10;100977.00;;;;5114981;28;20173;-39
2022/07/31 00:07:26;;;;;;;3.30;3.00;;;25.80;51.90;27.10;100980.00;;;;5113107;28;20157;-37
2022/07/31 00:09:54;;;;;;;3.90;3.20;;;25.70;51.00;27.10;100977.00;;;;5095490;28;20188;-37
2022/07/31 00:12:20;;;;;;;4.20;3.00;;;25.70;50.80;27.00;100972.00;;;;5090264;28;20249;-40
2022/07/31 00:14:46;;;;;;;3.20;2.90;;;25.70;50.60;27.00;100972.00;;;;5090443;28;20173;-40
2022/07/31 00:17:12;;;;;;;3.47;2.65;;;25.60;50.60;27.00;100981.00;;;;5089409;28;20169;-40
2022/07/31 00:19:37;;;;;;;3.33;2.92;;;25.60;50.50;27.00;100978.00;;;;5089869;28;20196;-40
2022/07/31 00:22:03;;;;;;;4.90;2.92;;;25.60;50.40;26.90;100974.00;;;;5089532;28;20203;-39
2022/07/31 00:24:29;;;;;;;4.55;2.70;;;25.60;50.30;26.90;100977.00;;;;5089991;28;20172;-40
2022/07/31 00:26:55;;;;;;;3.70;3.28;;;25.60;50.60;26.90;100971.00;;;;5089702;28;20188;-40
2022/07/31 00:29:21;;;;;;;5.13;2.97;;;25.70;51.60;26.90;100970.00;;;;5092220;28;20223;-40
2022/07/31 00:31:46;;;;;;;3.67;3.00;;;25.70;52.10;27.00;100966.00;;;;5089992;28;20169;-40
2022/07/31 00:34:12;;;;;;;3.70;3.10;;;25.70;52.50;26.90;100968.00;;;;5088834;28;20222;-38
2022/07/31 00:36:38;;;;;;;3.38;3.08;;;25.70;52.80;26.90;100970.00;;;;5089720;28;20175;-39
2022/07/31 00:39:04;;;;;;;3.42;3.05;;;25.60;52.90;26.90;100974.00;;;;5087863;28;20200;-39
2022/07/31 00:41:41;;;;;;;3.20;2.90;;;25.60;53.00;26.90;100984.00;;;;5089431;28;20559;-40
2022/07/31 00:44:08;;;;;;;3.85;3.10;;;25.60;53.00;26.80;100972.00;;;;5089734;28;20146;-40
2022/07/31 00:46:34;;;;;;;3.60;3.10;;;25.60;52.90;26.80;100970.00;;;;5089662;28;20176;-40
2022/07/31 00:48:59;;;;;;;3.65;3.10;;;25.60;52.90;26.80;100963.00;;;;5089708;28;20185;-40
2022/07/31 00:51:25;;;;;;;3.55;2.95;;;25.50;52.90;26.80;100959.00;;;;5089789;28;20173;-39
2022/07/31 00:53:51;;;;;;;3.20;2.90;;;25.50;52.80;26.80;100965.00;;;;5089796;28;20222;-40
2022/07/31 00:56:16;;;;;;;3.20;2.90;;;25.60;52.90;26.80;100955.00;;;;5089753;28;20173;-39
2022/07/31 00:58:42;;;;;;;3.67;3.08;;;25.50;52.80;26.80;100949.00;;;;5089394;28;20185;-40
2022/07/31 01:01:08;;;;;;;3.22;2.92;;;25.50;52.70;26.70;100949.00;;;;5089526;28;20228;-41
2022/07/31 01:03:34;;;;;;;4.68;2.95;;;25.50;52.40;26.70;100954.00;;;;5089903;28;20191;-39
2022/07/31 01:06:00;;;;;;;3.42;3.13;;;25.50;52.30;26.70;100950.00;;;;5092976;28;20165;-40
2022/07/31 01:08:25;;;;;;;3.35;2.70;;;25.50;52.10;26.60;100947.00;;;;5091997;28;20609;-39
2022/07/31 01:11:14;;;;;;;3.20;2.90;;;25.40;52.60;26.60;100948.00;;;;5089321;28;20805;-41
2022/07/31 01:13:58;;;;;;;2.85;2.63;;;25.40;51.90;26.60;100960.00;;;;5089290;28;20647;-39
2022/07/31 01:16:45;;;;;;;3.05;2.72;;;25.40;51.80;26.60;100945.00;;;;5071341;28;20173;-39
2022/07/31 01:19:27;;;;;;;3.75;2.90;;;25.40;51.80;26.50;100944.00;;;;5091385;28;20196;-37
2022/07/31 01:22:18;;;;;;;3.22;2.90;;;25.40;51.80;26.50;100947.00;;;;5092090;28;20200;-41
2022/07/31 01:25:02;;;;;;;3.00;2.80;;;25.40;51.80;26.50;100954.00;;;;5093260;28;20264;-38
2022/07/31 01:27:49;;;;;;;2.92;2.63;;;25.30;51.70;26.50;100949.00;;;;5093056;28;20164;-39
2022/07/31 01:30:15;;;;;;;3.42;3.03;;;25.30;51.60;26.40;100947.00;;;;5075104;28;20804;-39
2022/07/31 01:32:44;;;;;;;3.95;3.15;;;25.30;51.40;26.40;100948.00;;;;5058264;28;20271;-40
2022/07/31 01:35:21;;;;;;;3.30;2.90;;;25.30;51.40;26.40;100957.00;;;;5074866;28;20219;-38
2022/07/31 01:37:52;;;;;;;3.60;2.78;;;25.20;51.30;26.40;100952.00;;;;5074491;28;20258;-39
2022/07/31 01:40:26;;;;;;;3.45;2.97;;;25.20;51.30;26.30;100939.00;;;;5074840;28;20193;-38
2022/07/31 01:43:00;;;;;;;3.63;2.63;;;25.20;51.20;26.30;100937.00;;;;5090169;28;20703;-39
2022/07/31 01:45:26;;;;;;;2.90;2.70;;;25.10;51.00;26.30;100929.00;;;;5074992;28;20172;-39
2022/07/31 01:47:52;;;;;;;3.28;2.50;;;25.10;51.10;26.10;100934.00;;;;5074173;28;20192;-38
2022/07/31 01:50:18;;;;;;;3.67;2.92;;;25.10;51.00;26.30;100937.00;;;;5091826;28;20247;-39
2022/07/31 01:52:44;;;;;;;2.97;2.70;;;25.10;51.00;26.30;100932.00;;;;5091874;28;20263;-38
2022/07/31 01:55:09;;;;;;;3.20;2.60;;;25.10;51.00;26.20;100929.00;;;;5058160;28;20169;-39
2022/07/31 01:57:36;;;;;;;3.00;2.70;;;25.10;50.90;26.20;100930.00;;;;5091472;28;20169;-39
2022/07/31 02:00:05;;;;;;;2.63;2.42;;;25.10;51.00;26.20;100932.00;;;;5091678;28;20165;-39
2022/07/31 02:02:31;;;;;;;3.17;2.88;;;25.10;51.00;26.20;100930.00;;;;5092557;28;20250;-39
2022/07/31 02:04:57;;;;;;;3.15;2.85;;;25.10;51.40;26.20;100927.00;;;;5074440;28;20157;-40
2022/07/31 02:07:25;;;;;;;3.42;2.92;;;25.10;51.10;26.30;100927.00;;;;5090749;28;20248;-40
2022/07/31 02:09:51;;;;;;;2.97;2.65;;;25.20;51.90;26.30;100928.00;;;;5091164;28;20577;-39
2022/07/31 02:12:18;;;;;;;3.60;2.97;;;25.20;52.60;26.30;100938.00;;;;5091355;28;20173;-38
2022/07/31 02:14:43;;;;;;;3.28;2.97;;;25.10;52.80;26.20;100924.00;;;;5074388;28;20757;-40
2022/07/31 02:17:09;;;;;;;3.47;2.88;;;25.10;53.10;26.30;100930.00;;;;5073938;28;20226;-39
2022/07/31 02:19:36;;;;;;;2.80;2.60;;;25.10;53.10;26.30;100930.00;;;;5057060;28;20193;-43
2022/07/31 02:22:02;;;;;;;3.45;3.15;;;25.10;53.20;26.20;100931.00;;;;5057436;28;20200;-40
2022/07/31 02:24:27;;;;;;;3.13;2.80;;;25.10;53.20;26.20;100925.00;;;;5090850;28;20655;-39
2022/07/31 02:26:53;;;;;;;2.95;2.75;;;25.10;53.20;26.20;100930.00;;;;5091860;28;20519;-39
2022/07/31 02:29:19;;;;;;;3.60;2.78;;;25.10;53.60;26.20;100930.00;;;;5090452;28;20556;-39
2022/07/31 02:31:47;;;;;;;3.38;3.00;;;25.10;53.50;26.20;100925.00;;;;5073781;28;20538;-39
2022/07/31 02:34:12;;;;;;;3.50;3.03;;;25.00;53.50;26.20;100928.00;;;;5073960;28;20184;-39
2022/07/31 02:36:38;;;;;;;3.17;2.90;;;25.00;53.50;26.20;100930.00;;;;5090965;28;20165;-40
2022/07/31 02:39:04;;;;;;;3.00;2.67;;;25.00;53.40;26.20;100919.00;;;;5073992;28;20246;-39
2022/07/31 02:41:30;;;;;;;3.20;2.90;;;25.00;53.30;26.10;100923.00;;;;5090470;28;20193;-39
2022/07/31 02:43:55;;;;;;;3.17;2.88;;;25.00;53.40;26.10;100920.00;;;;5090881;28;20596;-40
2022/07/31 02:46:21;;;;;;;3.25;2.80;;;25.00;53.40;26.10;100912.00;;;;5091690;28;20646;-38
2022/07/31 02:48:48;;;;;;;3.60;2.70;;;25.00;53.60;26.10;100909.00;;;;5090189;28;20238;-39
2022/07/31 02:51:14;;;;;;;3.83;2.78;;;25.00;53.60;26.10;100911.00;;;;5090334;28;20161;-38
2022/07/31 02:53:40;;;;;;;4.63;3.00;;;25.00;53.50;26.00;100910.00;;;;5090438;28;20196;-39
2022/07/31 02:56:08;;;;;;;3.00;2.80;;;24.90;53.30;26.00;100899.00;;;;5073814;28;20201;-40
2022/07/31 02:58:36;;;;;;;3.08;2.88;;;24.90;53.20;26.00;100908.00;;;;5073604;28;20203;-39
2022/07/31 03:01:04;;;;;;;2.85;2.65;;;24.90;53.40;26.00;100911.00;;;;5091253;28;20228;-39
2022/07/31 03:03:30;;;;;;;3.85;3.05;;;24.90;53.30;25.90;100903.00;;;;5092495;28;20742;-40
2022/07/31 03:05:56;;;;;;;3.47;2.70;;;24.80;53.00;25.90;100898.00;;;;5093965;28;20169;-39
2022/07/31 03:08:21;;;;;;;3.38;2.70;;;24.80;52.50;25.90;100891.00;;;;5093976;28;20217;-38
2022/07/31 03:10:47;;;;;;;3.85;2.60;;;24.80;52.10;25.90;100900.00;;;;5112338;28;20202;-41
2022/07/31 03:13:13;;;;;;;2.90;2.60;;;24.80;51.90;25.90;100904.00;;;;5110813;28;20176;-38
2022/07/31 03:15:39;;;;;;;3.70;2.65;;;24.70;51.60;25.80;100893.00;;;;5074960;28;20513;-40
2022/07/31 03:18:05;;;;;;;3.00;2.80;;;24.80;51.90;25.80;100916.00;;;;5072723;28;20537;-39
2022/07/31 03:20:31;;;;;;;3.75;2.80;;;24.70;52.30;25.80;100923.00;;;;5075560;28;20189;-38
2022/07/31 03:22:56;;;;;;;6.40;3.08;;;24.70;53.00;25.80;100920.00;;;;5052549;28;20206;-45
2022/07/31 03:25:22;;;;;;;5.18;2.95;;;24.70;53.40;25.80;100922.00;;;;5052940;28;20209;-39
2022/07/31 03:27:49;;;;;;;5.00;2.97;;;24.70;54.10;25.80;100922.00;;;;5068118;28;20196;-38
2022/07/31 03:30:17;;;;;;;3.60;2.70;;;24.70;53.50;25.70;100916.00;;;;5114787;28;20173;-39
2022/07/31 03:32:43;;;;;;;3.63;2.72;;;24.70;53.40;25.70;100916.00;;;;5104755;28;20177;-40
2022/07/31 03:35:09;;;;;;;4.43;3.13;;;24.70;53.40;25.70;100911.00;;;;5090197;28;20527;-38
2022/07/31 03:37:35;;;;;;;5.78;3.03;;;24.70;53.30;25.70;100907.00;;;;5089899;28;20179;-40
2022/07/31 03:40:01;;;;;;;3.70;3.40;;;24.70;53.30;25.70;100916.00;;;;5090159;28;20713;-41
2022/07/31 03:42:26;;;;;;;4.35;3.00;;;24.70;53.00;25.70;100920.00;;;;5088673;28;20197;-38
2022/07/31 03:44:52;;;;;;;3.38;3.08;;;24.70;52.60;25.70;100920.00;;;;5072089;28;20876;-38
2022/07/31 03:47:18;;;;;;;3.00;2.70;;;24.70;52.60;25.70;100925.00;;;;5088798;28;20173;-39
2022/07/31 03:49:44;;;;;;;4.35;2.72;;;24.70;52.50;25.70;100918.00;;;;5072395;28;20545;-38
2022/07/31 03:52:10;;;;;;;4.25;2.83;;;24.70;52.30;25.70;100923.00;;;;5072028;28;20597;-38
2022/07/31 03:54:36;;;;;;;3.50;2.72;;;24.70;52.30;25.70;100905.00;;;;5071269;28;20198;-38
2022/07/31 03:57:01;;;;;;;3.15;2.80;;;24.70;52.30;25.70;100917.00;;;;5071715;28;20173;-39
2022/07/31 03:59:27;;;;;;;3.22;2.92;;;24.70;52.40;25.70;100927.00;;;;5088337;28;20326;-39
2022/07/31 04:01:53;;;;;;;2.95;2.75;;;24.60;52.30;25.70;100921.00;;;;5087992;28;20196;-39
2022/07/31 04:04:18;;;;;;;2.80;2.60;;;24.60;52.60;25.60;100922.00;;;;5088473;28;20247;-38
2022/07/31 04:06:44;;;;;;;3.13;2.80;;;24.60;52.70;25.60;100917.00;;;;5089716;28;20188;-40
2022/07/31 04:09:10;;;;;;;3.08;2.60;;;24.60;52.70;25.60;100917.00;;;;5091172;28;20200;-39
2022/07/31 04:11:35;;;;;;;4.63;2.80;;;24.60;52.60;25.60;100919.00;;;;5092993;28;20168;-38
2022/07/31 04:14:01;;;;;;;2.72;2.53;;;24.60;52.60;25.60;100909.00;;;;5090430;28;20177;-38
2022/07/31 04:16:27;;;;;;;2.78;2.58;;;24.70;52.30;25.60;100918.00;;;;5085733;28;20229;-39
2022/07/31 04:18:53;;;;;;;3.10;2.80;;;24.60;52.20;25.60;100923.00;;;;5053903;28;20193;-38
2022/07/31 04:21:19;;;;;;;4.35;2.83;;;24.60;52.20;25.60;100928.00;;;;5087987;28;20291;-38
2022/07/31 04:23:45;;;;;;;3.10;2.80;;;24.60;52.30;25.60;100923.00;;;;5071620;28;20169;-39
2022/07/31 04:26:10;;;;;;;3.10;2.80;;;24.60;52.40;25.60;100926.00;;;;5089233;28;20169;-38
2022/07/31 04:28:36;;;;;;;4.03;2.90;;;24.60;52.50;25.60;100924.00;;;;5087973;28;20192;-38
2022/07/31 04:31:02;;;;;;;4.28;2.90;;;24.60;52.40;25.60;100919.00;;;;5089348;28;20165;-39
2022/07/31 04:33:27;;;;;;;3.75;2.75;;;24.60;53.10;25.60;100919.00;;;;5090914;28;20269;-40
2022/07/31 04:35:53;;;;;;;4.13;2.88;;;24.60;52.40;25.50;100927.00;;;;5089115;28;20591;-39
2022/07/31 04:38:20;;;;;;;4.07;2.85;;;24.60;52.40;25.60;100920.00;;;;5089225;28;20655;-39
2022/07/31 04:40:47;;;;;;;3.67;3.08;;;24.60;52.50;25.50;100919.00;;;;5088245;28;20259;-39
2022/07/31 04:43:13;;;;;;;3.28;2.80;;;24.60;52.50;25.50;100923.00;;;;5086730;28;20253;-39
2022/07/31 04:45:39;;;;;;;3.47;2.90;;;24.60;52.50;25.50;100925.00;;;;5089307;28;20251;-39
2022/07/31 04:48:05;;;;;;;3.00;2.70;;;24.50;52.50;25.50;100922.00;;;;5089198;28;20221;-38
2022/07/31 04:50:30;;;;;;;3.95;2.80;;;24.50;52.50;25.50;100925.00;;;;5089641;28;20165;-39
2022/07/31 04:52:56;;;;;;;4.28;2.60;;;24.60;52.60;25.50;100924.00;;;;5091231;28;20687;-39
2022/07/31 04:55:23;;;;;;;2.83;2.63;;;24.50;52.50;25.50;100925.00;;;;5092842;28;20182;-38
2022/07/31 04:57:48;;;;;;;6.28;2.85;;;24.50;52.50;25.50;100922.00;;;;5093279;28;20193;-39
2022/07/31 05:00:14;;;;;;;3.15;2.85;;;24.60;52.60;25.50;100929.00;;;;5093190;28;20251;-39
2022/07/31 05:02:40;;;;;;;4.35;2.92;;;24.50;52.60;25.50;100928.00;;;;5091641;28;20203;-39
2022/07/31 05:05:06;;;;;;;7.03;3.22;;;24.50;52.70;25.50;100927.00;;;;5093228;28;20165;-39
2022/07/31 05:07:33;;;;;;;4.13;2.70;;;24.50;52.80;25.50;100924.00;;;;5092815;28;20177;-39
2022/07/31 05:09:59;;;;;;;3.30;2.60;;;24.50;52.80;25.50;100927.00;;;;5092769;28;20176;-39
2022/07/31 05:12:25;;;;;;;4.40;2.60;;;24.50;52.80;25.40;100930.00;;;;5092310;28;20169;-39
2022/07/31 05:14:50;;;;;;;3.13;2.67;;;24.50;52.90;25.50;100930.00;;;;5093036;28;20176;-39
2022/07/31 05:17:16;;;;;;;4.60;2.85;;;24.50;52.80;25.40;100924.00;;;;5091633;28;20577;-39
2022/07/31 05:19:42;;;;;;;4.07;2.90;;;24.50;52.80;25.50;100924.00;;;;5092972;28;20220;-39
2022/07/31 05:22:07;;;;;;;3.53;2.92;;;24.50;53.70;25.50;100927.00;;;;5092105;28;20282;-38
2022/07/31 05:24:33;;;;;;;3.10;2.80;;;24.50;53.60;25.40;100930.00;;;;5092808;28;20169;-39
2022/07/31 05:27:00;;;;;;;5.32;2.83;;;24.50;53.40;25.40;100930.00;;;;5092681;28;20176;-39
2022/07/31 05:29:25;;;;;;;3.10;2.80;;;24.50;53.80;25.40;100925.00;;;;5093052;28;20656;-39
2022/07/31 05:31:51;;;;;;;3.30;2.88;;;24.50;53.50;25.40;100932.00;;;;5092402;28;20196;-39
2022/07/31 05:34:17;;;;;;;3.28;2.88;;;24.50;53.90;25.40;100929.00;;;;5092809;28;20239;-38
2022/07/31 05:36:43;;;;;;;3.20;2.90;;;24.50;53.90;25.40;100932.00;;;;5092979;28;20173;-39
2022/07/31 05:39:11;;;;;;;3.78;3.10;;;24.50;53.90;25.40;100930.00;;;;5092547;28;20249;-39
2022/07/31 05:41:37;;;;;;;3.28;2.97;;;24.50;54.10;25.00;100927.00;;;;5092163;28;20208;-39
2022/07/31 05:44:03;;;;;;;3.88;3.08;;;24.50;53.90;25.40;100927.00;;;;5091127;28;20169;-39
2022/07/31 05:46:28;;;;;;;3.13;2.92;;;24.40;53.80;25.40;100930.00;;;;5074054;28;20169;-39
2022/07/31 05:48:54;;;;;;;3.10;2.80;;;24.40;53.80;25.40;100927.00;;;;5092396;28;20192;-39
2022/07/31 05:51:20;;;;;;;3.00;2.80;;;24.50;53.90;25.40;100931.00;;;;5092316;28;20180;-39
2022/07/31 05:53:46;;;;;;;4.38;2.80;;;24.50;53.90;25.40;100931.00;;;;5092463;28;20260;-39
2022/07/31 05:56:11;;;;;;;4.80;2.97;;;24.50;54.10;25.40;100931.00;;;;5092388;28;20178;-39
2022/07/31 05:58:37;;;;;;;3.08;2.78;;;24.40;54.20;25.40;100933.00;;;;5091835;28;20594;-39
2022/07/31 06:01:03;;;;;;;3.00;2.70;;;24.50;54.10;25.40;100934.00;;;;5091902;28;20228;-38
2022/07/31 06:03:30;;;;;;;3.85;3.13;;;24.40;54.20;25.40;100927.00;;;;5091744;28;20173;-38
2022/07/31 06:05:56;;;;;;;4.80;3.00;;;24.40;54.10;25.30;100930.00;;;;5092460;28;20169;-39
2022/07/31 06:08:22;;;;;;;3.63;3.08;;;24.40;54.60;25.30;100924.00;;;;5091599;28;20263;-39
2022/07/31 06:10:47;;;;;;;3.38;3.08;;;24.40;54.60;25.30;100920.00;;;;5091918;28;20645;-38
2022/07/31 06:13:13;;;;;;;3.25;2.95;;;24.40;54.60;25.30;100914.00;;;;5091221;28;20700;-38
2022/07/31 06:15:42;;;;;;;3.35;2.80;;;24.40;54.60;25.30;100918.00;;;;5091841;28;20548;-39
2022/07/31 06:18:08;;;;;;;3.30;3.00;;;24.40;54.90;25.30;100914.00;;;;5073125;28;20196;-40
2022/07/31 06:20:34;;;;;;;4.10;3.10;;;24.40;54.90;25.30;100926.00;;;;5091953;28;20171;-39
2022/07/31 06:23:00;;;;;;;3.10;2.80;;;24.30;54.80;25.30;100915.00;;;;5091275;28;20193;-39
2022/07/31 06:25:26;;;;;;;4.47;3.05;;;24.40;54.90;25.20;100927.00;;;;5092095;28;20257;-37
2022/07/31 06:27:52;;;;;;;5.53;3.00;;;24.30;55.10;25.20;100925.00;;;;5091072;28;20185;-39
2022/07/31 06:30:18;;;;;;;3.80;2.90;;;24.30;55.30;25.20;100924.00;;;;5091919;28;20154;-40
2022/07/31 06:32:44;;;;;;;3.00;2.67;;;24.30;55.50;25.20;100918.00;;;;5091764;28;20176;-39
2022/07/31 06:35:10;;;;;;;3.17;2.87;;;24.30;55.70;25.20;100914.00;;;;5092027;28;20172;-39
2022/07/31 06:37:35;;;;;;;3.50;2.80;;;24.20;55.80;25.20;100917.00;;;;5091552;28;20188;-41
2022/07/31 06:40:01;;;;;;;3.73;2.80;;;24.20;55.80;25.20;100915.00;;;;5091973;28;20173;-39
2022/07/31 06:42:27;;;;;;;3.95;2.90;;;24.20;55.80;25.20;100908.00;;;;5071623;28;20197;-39
2022/07/31 06:44:53;;;;;;;3.13;2.90;;;24.20;55.80;25.20;100896.00;;;;5091818;28;20218;-38
2022/07/31 06:47:22;;;;;;;3.15;2.83;;;24.30;55.90;25.10;100908.00;;;;5091292;28;20206;-38
2022/07/31 06:49:48;;;;;;;3.90;2.87;;;24.20;56.40;25.10;100898.00;;;;5091622;28;20217;-38
2022/07/31 06:52:14;;;;;;;3.07;2.80;;;24.10;56.30;25.00;100900.00;;;;5104413;28;20169;-39
2022/07/31 06:54:41;;;;;;;3.00;2.80;;;24.20;56.40;25.10;100908.00;;;;5117067;28;20201;-38
2022/07/31 06:57:07;;;;;;;3.40;3.10;;;24.10;56.90;25.10;100913.00;;;;5054364;28;20177;-39
2022/07/31 06:59:33;;;;;;;3.20;2.90;;;24.10;57.20;25.10;100900.00;;;;5089527;28;20199;-39
2022/07/31 07:01:58;;;;;;;6.40;2.97;;;24.10;56.60;25.00;100920.00;;;;5084778;28;20194;-40
2022/07/31 07:04:24;;;;;;;3.97;2.93;;;24.00;56.90;25.00;100926.00;;;;5077166;28;20176;-41
2022/07/31 07:06:50;;;;;;;3.20;2.90;;;24.00;56.80;25.00;100913.00;;;;5080185;28;20165;-38
2022/07/31 07:09:16;;;;;;;3.95;2.72;;;23.90;56.70;25.00;100927.00;;;;5081788;28;20571;-38
2022/07/31 07:11:42;;;;;;;3.33;2.83;;;23.90;56.70;25.00;100922.00;;;;5091007;28;20192;-38
2022/07/31 07:14:08;;;;;;;3.73;2.70;;;23.90;56.90;25.00;100924.00;;;;5081466;28;20244;-38
2022/07/31 07:16:34;;;;;;;4.20;2.73;;;23.90;56.90;24.90;100936.00;;;;5095121;28;20641;-38
2022/07/31 07:18:59;;;;;;;3.40;2.70;;;23.90;57.00;24.90;100925.00;;;;5091597;28;20670;-38
2022/07/31 07:21:25;;;;;;;5.53;2.80;;;23.90;57.00;24.90;100921.00;;;;5088831;28;20208;-38
2022/07/31 07:23:51;;;;;;;3.47;2.80;;;23.90;57.80;24.90;100924.00;;;;5091396;28;20165;-38
2022/07/31 07:26:18;;;;;;;3.40;2.87;;;23.80;57.10;24.90;100922.00;;;;5087195;28;20252;-38
2022/07/31 07:28:44;;;;;;;2.90;2.50;;;23.80;57.20;24.90;100923.00;;;;5090270;28;20693;-40
2022/07/31 07:31:10;;;;;;;3.20;2.80;;;23.90;57.30;24.90;100911.00;;;;5091217;28;20177;-39
2022/07/31 07:33:36;;;;;;;2.77;2.47;;;23.80;57.50;24.90;100912.00;;;;5089654;28;20207;-38
2022/07/31 07:36:02;;;;;;;3.37;2.40;;;23.80;57.40;24.90;100910.00;;;;5089808;28;20189;-38
2022/07/31 07:38:28;;;;;;;3.33;2.70;;;23.80;57.40;24.90;100903.00;;;;5090427;28;20735;-38
2022/07/31 07:40:53;;;;;;;3.27;2.87;;;23.80;57.60;24.80;100903.00;;;;5089705;28;20208;-39
2022/07/31 07:43:19;;;;;;;2.87;2.53;;;23.80;57.50;24.80;100905.00;;;;5089471;28;20169;-40
2022/07/31 07:45:45;;;;;;;3.33;2.63;;;23.80;57.50;24.80;100895.00;;;;5089403;28;20179;-39
2022/07/31 07:48:11;;;;;;;3.77;2.63;;;23.80;57.70;24.80;100900.00;;;;5089383;28;20222;-39
2022/07/31 07:50:36;;;;;;;2.80;2.50;;;23.80;57.70;24.80;100898.00;;;;5087660;28;20191;-38
2022/07/31 07:53:02;;;;;;;3.57;2.50;;;23.80;57.70;24.80;100900.00;;;;5069149;28;20245;-41
2022/07/31 07:55:28;;;;;;;4.90;2.93;;;23.80;57.80;24.80;100898.00;;;;5064645;28;20662;-41
2022/07/31 07:57:54;;;;;;;3.90;2.50;;;23.80;57.60;24.70;100892.00;;;;5032440;28;20236;-41
2022/07/31 08:00:19;;;;;;;3.63;2.43;;;23.80;57.70;24.80;100894.00;;;;5089325;28;20248;-41
2022/07/31 08:02:46;;;;;;;3.23;2.50;;;23.90;58.10;24.80;100888.00;;;;5089163;28;20671;-41
2022/07/31 08:05:11;;;;;;;3.80;2.57;;;24.00;57.20;24.80;100884.00;;;;5089910;28;20176;-41
2022/07/31 08:07:38;;;;;;;3.73;2.47;;;24.00;57.00;24.80;100883.00;;;;5089348;28;20631;-41
2022/07/31 08:10:05;;;;;;;2.77;2.30;;;24.00;56.80;24.90;100895.00;;;;5088038;28;20540;-41
2022/07/31 08:12:31;;;;;;;3.43;2.43;;;24.00;56.80;24.90;100880.00;;;;5089814;28;20586;-41
2022/07/31 08:14:57;;;;;;;3.33;2.53;;;24.10;56.70;24.90;100880.00;;;;5087848;28;20222;-43
2022/07/31 08:17:22;;;;;;;2.93;2.30;;;24.10;56.70;24.90;100878.00;;;;5086110;28;20282;-42
2022/07/31 08:19:50;;;;;;;2.60;2.40;;;24.10;56.60;24.70;100880.00;;;;5088720;28;20300;-42
2022/07/31 08:22:15;;;;;;;2.73;2.50;;;24.10;56.80;24.90;100879.00;;;;5089254;28;20288;-41
2022/07/31 08:24:41;;;;;;;3.90;2.67;;;24.10;56.60;25.00;100878.00;;;;5088025;28;20591;-41
2022/07/31 08:29:56;;;;;;;3.37;2.10;;;24.10;56.40;25.00;100884.00;;;;5087956;28;20229;-42
2022/07/31 08:32:23;;;;;;;3.00;2.30;;;24.10;56.20;25.00;100882.00;;;;5088585;28;20200;-42
2022/07/31 08:34:49;;;;;;;2.40;2.20;;;24.20;56.20;25.00;100870.00;;;;5087462;28;20203;-42
2022/07/31 08:37:18;;;;;;;3.60;2.33;;;24.20;56.30;25.00;100865.00;;;;5077262;28;20181;-41
2022/07/31 08:39:45;;;;;;;2.43;2.00;;;24.20;56.20;25.10;100875.00;;;;5069430;28;20228;-41
2022/07/31 08:42:11;;;;;;;2.40;2.20;;;24.20;56.10;25.10;100867.00;;;;5077462;28;20595;-42
2022/07/31 08:44:38;;;;;;;2.47;2.30;;;24.30;56.00;25.10;100873.00;;;;5084227;28;20186;-40
2022/07/31 08:47:08;;;;;;;2.27;2.17;;;24.30;55.90;25.10;100883.00;;;;5069594;28;20197;-40
2022/07/31 08:49:42;;;;;;;2.83;2.20;;;24.30;55.90;25.20;100883.00;;;;5068320;28;20194;-41
2022/07/31 08:52:09;;;;;;;2.50;2.30;;;24.40;56.00;25.10;100885.00;;;;5060878;28;20204;-42
2022/07/31 08:54:35;;;;;;;2.58;2.38;;;24.40;56.00;25.20;100890.00;;;;5081210;28;20183;-41
2022/07/31 08:57:02;;;;;;;2.85;2.10;;;24.40;56.00;25.20;100882.00;;;;5013691;28;20181;-41
2022/07/31 08:59:28;;;;;;;2.47;2.10;;;24.40;55.90;25.20;100876.00;;;;5053577;28;20742;-41
2022/07/31 09:01:55;;;;;;;2.20;2.00;;;24.40;55.80;25.20;100877.00;;;;5088550;28;20193;-41
2022/07/31 09:04:22;;;;;;;2.38;2.15;;;24.40;55.80;25.20;100876.00;;;;5090380;28;20176;-40
2022/07/31 09:06:49;;;;;;;2.47;2.10;;;24.40;55.80;25.20;100871.00;;;;5090094;28;20173;-42
2022/07/31 09:09:16;;;;;;;2.20;2.10;;;24.40;55.80;25.30;100864.00;;;;5087714;28;20205;-41
2022/07/31 09:11:47;;;;;;;2.30;2.10;;;24.50;55.80;25.30;100862.00;;;;5088922;28;20161;-41
2022/07/31 09:14:14;;;;;;;2.47;2.27;;;24.40;56.40;25.30;100859.00;;;;5088816;28;20214;-40
2022/07/31 09:16:45;;;;;;;2.23;2.03;;;24.50;55.80;25.30;100867.00;;;;5093560;28;20184;-41
2022/07/31 09:19:12;;;;;;;2.50;2.10;;;24.50;55.70;25.30;100864.00;;;;5095990;28;20224;-40
2022/07/31 09:21:46;;;;;;;2.20;2.00;;;24.50;55.70;25.30;100870.00;;;;5078349;28;20204;-42
2022/07/31 09:24:30;;;;;;;2.45;2.22;;;24.50;55.80;25.40;100863.00;;;;5091619;28;20161;-41
2022/07/31 09:27:07;;;;;;;2.00;1.90;;;24.50;55.70;25.40;100864.00;;;;5088908;28;20232;-41
2022/07/31 09:29:40;;;;;;;2.33;2.13;;;24.60;55.90;25.30;100864.00;;;;5088681;28;20180;-42
2022/07/31 09:32:13;;;;;;;2.55;2.10;;;24.60;55.80;25.40;100856.00;;;;5088457;28;20168;-41
2022/07/31 09:34:43;;;;;;;3.03;2.30;;;24.60;55.70;25.40;100861.00;;;;5086953;28;20166;-41
2022/07/31 09:37:12;;;;;;;2.85;2.00;;;24.60;55.90;25.40;100858.00;;;;5087644;28;20181;-41
2022/07/31 09:39:38;;;;;;;3.05;2.05;;;24.70;55.80;25.40;100872.00;;;;5090821;28;20244;-42
2022/07/31 09:42:05;;;;;;;2.42;2.20;;;24.70;55.90;25.50;100863.00;;;;5092217;28;20292;-42
2022/07/31 09:44:39;;;;;;;2.50;2.17;;;24.70;55.80;25.50;100861.00;;;;5095467;28;20597;-42
2022/07/31 09:47:05;;;;;;;3.72;2.22;;;24.70;55.90;25.50;100859.00;;;;5090341;28;20157;-42
2022/07/31 09:49:32;;;;;;;2.58;1.90;;;24.70;55.80;25.50;100869.00;;;;5090468;28;20238;-41
2022/07/31 09:51:59;;;;;;;2.30;2.10;;;24.70;55.80;25.60;100867.00;;;;5091288;28;20223;-41
2022/07/31 09:54:26;;;;;;;2.58;2.10;;;24.70;55.80;25.60;100860.00;;;;5091322;28;20169;-41
2022/07/31 09:56:52;;;;;;;2.20;2.00;;;24.70;55.70;25.60;100858.00;;;;5040393;28;20639;-41
2022/07/31 09:59:18;;;;;;;2.30;2.10;;;24.70;55.70;25.60;100858.00;;;;5073405;28;20199;-40
2022/07/31 10:01:47;;;;;;;2.20;2.00;;;24.70;55.70;25.60;100860.00;;;;5090743;28;20200;-41
2022/07/31 10:04:17;;;;;;;2.47;2.20;;;24.80;55.80;25.60;100858.00;;;;5091800;28;20215;-41
2022/07/31 10:06:49;;;;;;;2.33;1.90;;;24.80;55.80;25.60;100856.00;;;;5091160;28;20173;-41
2022/07/31 10:09:17;;;;;;;2.80;2.20;;;24.70;55.70;25.60;100856.00;;;;5073434;28;20721;-41
2022/07/31 10:11:43;;;;;;;2.72;2.10;;;24.80;56.30;25.60;100851.00;;;;5055938;28;20157;-42
2022/07/31 10:14:12;;;;;;;2.78;2.00;;;24.80;56.30;25.70;100858.00;;;;5056648;28;20173;-42
2022/07/31 10:16:39;;;;;;;2.25;2.10;;;24.80;56.50;25.70;100856.00;;;;5073420;28;20184;-42
2022/07/31 10:19:10;;;;;;;2.17;2.00;;;24.80;56.50;25.70;100856.00;;;;5083986;28;20257;-42
2022/07/31 10:21:40;;;;;;;2.10;1.90;;;24.90;56.50;25.70;100860.00;;;;5059951;28;20212;-41
2022/07/31 10:24:06;;;;;;;2.35;2.15;;;24.90;56.40;25.70;100859.00;;;;5069598;28;20158;-41
2022/07/31 10:26:31;;;;;;;2.10;2.00;;;24.90;56.40;25.70;100870.00;;;;5052458;28;20170;-41
2022/07/31 10:28:57;;;;;;;2.42;2.13;;;24.90;56.40;25.70;100860.00;;;;5050460;28;20208;-41
2022/07/31 10:31:23;;;;;;;3.05;2.10;;;24.90;56.60;25.80;100846.00;;;;5075059;28;20179;-41
2022/07/31 10:33:49;;;;;;;2.77;1.90;;;24.90;56.60;25.80;100839.00;;;;5088877;28;20168;-41
2022/07/31 10:36:22;;;;;;;2.10;1.90;;;24.90;56.60;25.80;100837.00;;;;5091039;28;20195;-41
2022/07/31 10:39:30;;;;;;;3.40;2.10;;;25.00;56.50;25.80;100826.00;;;;5093023;28;20193;-43
2022/07/31 10:42:06;;;;;;;2.30;2.10;;;25.00;56.60;25.80;100825.00;;;;5092610;28;20192;-40
2022/07/31 10:44:45;;;;;;;2.78;2.10;;;25.00;56.50;25.80;100824.00;;;;5090126;28;20455;-41
2022/07/31 10:47:13;;;;;;;2.13;1.90;;;25.00;56.70;25.90;100825.00;;;;5087635;28;20172;-41
2022/07/31 10:49:44;;;;;;;2.80;2.00;;;25.00;56.70;25.90;100814.00;;;;5088724;28;20193;-42